createdAt,value
2022-12-28T00:01:19.168Z,101064.60
2022-12-28T00:03:47.217Z,101063.25
2022-12-28T00:06:16.112Z,101064.16
2022-12-28T00:08:43.983Z,101062.81
2022-12-28T00:11:20.469Z,101063.55
2022-12-28T00:13:57.527Z,101063.58
2022-12-28T00:16:26.961Z,101056.17
2022-12-28T00:18:55.567Z,101056.88
2022-12-28T00:21:23.574Z,101058.11
2022-12-28T00:23:52.203Z,101061.25
2022-12-28T00:26:20.153Z,101061.79
2022-12-28T00:28:51.169Z,101053.15
2022-12-28T00:31:18.897Z,101054.23
2022-12-28T00:33:46.645Z,101054.77
2022-12-28T00:36:15.650Z,101054.25
2022-12-28T00:38:43.830Z,101050.82
2022-12-28T00:41:11.751Z,101048.95
2022-12-28T00:43:39.642Z,101044.64
2022-12-28T00:46:07.354Z,101046.38
2022-12-28T00:48:35.474Z,101049.52
2022-12-28T00:51:04.747Z,101047.31
2022-12-28T00:53:32.508Z,101043.53
2022-12-28T00:56:07.591Z,101039.41
2022-12-28T00:58:35.585Z,101036.85
2022-12-28T01:01:57.633Z,101033.41
2022-12-28T01:04:25.999Z,101027.05
2022-12-28T01:06:54.062Z,101026.72
2022-12-28T01:09:21.678Z,101022.06
2022-12-28T01:11:49.347Z,101016.03
2022-12-28T01:14:17.365Z,101016.90
2022-12-28T01:16:50.015Z,101010.86
2022-12-28T01:19:21.769Z,101007.94
2022-12-28T01:21:50.863Z,101007.95
2022-12-28T01:24:18.736Z,101001.20
2022-12-28T01:26:46.696Z,100998.80
2022-12-28T01:29:15.727Z,100999.66
2022-12-28T01:31:45.379Z,100996.21
2022-12-28T01:34:14.727Z,100996.73
2022-12-28T01:36:42.446Z,100997.77
2022-12-28T01:39:10.242Z,100996.75
2022-12-28T01:41:39.480Z,100993.48
2022-12-28T01:44:07.492Z,100993.14
2022-12-28T01:46:38.269Z,100992.63
2022-12-28T01:49:08.052Z,100994.88
2022-12-28T01:51:44.759Z,100991.60
2022-12-28T01:54:12.535Z,100992.98
2022-12-28T01:56:42.663Z,100993.67
2022-12-28T01:59:11.557Z,100991.44
2022-12-28T02:01:39.486Z,100981.25
2022-12-28T02:04:07.366Z,100983.67
2022-12-28T02:06:34.974Z,100974.53
2022-12-28T02:09:18.866Z,100973.49
2022-12-28T02:11:47.776Z,100975.23
2022-12-28T02:14:16.169Z,100966.09
2022-12-28T02:16:44.528Z,100954.89
2022-12-28T02:19:16.128Z,100944.88
2022-12-28T02:21:52.979Z,100943.15
2022-12-28T02:24:27.037Z,100934.35
2022-12-28T02:27:03.127Z,100931.42
2022-12-28T02:29:46.773Z,100929.54
2022-12-28T02:32:20.575Z,100929.38
2022-12-28T02:34:51.376Z,100924.72
2022-12-28T02:37:22.415Z,100919.38
2022-12-28T02:39:53.841Z,100915.56
2022-12-28T02:42:22.468Z,100917.64
2022-12-28T02:45:08.930Z,100917.65
2022-12-28T02:47:56.048Z,100918.69
2022-12-28T02:50:27.769Z,100914.89
2022-12-28T02:53:22.227Z,100914.89
2022-12-28T02:56:08.479Z,100906.96
2022-12-28T02:58:47.921Z,100908.69
2022-12-28T03:01:19.001Z,100897.31
2022-12-28T03:04:08.960Z,100894.89
2022-12-28T03:07:05.897Z,100898.16
2022-12-28T03:09:39.329Z,100896.80
2022-12-28T03:12:10.831Z,100891.26
2022-12-28T03:14:45.212Z,100883.81
2022-12-28T03:17:33.242Z,100884.47
2022-12-28T03:20:23.568Z,100878.94
2022-12-28T03:23:11.456Z,100875.45
2022-12-28T03:26:01.317Z,100876.11
2022-12-28T03:28:53.950Z,100869.36
2022-12-28T03:31:25.169Z,100861.75
2022-12-28T03:34:06.800Z,100860.52
2022-12-28T03:36:52.640Z,100856.86
2022-12-28T03:39:31.964Z,100845.97
2022-12-28T03:42:32.402Z,100844.02
2022-12-28T03:45:46.131Z,100841.09
2022-12-28T03:48:10.379Z,100836.92
2022-12-28T03:50:39.927Z,100835.71
2022-12-28T03:53:08.182Z,100835.88
2022-12-28T03:55:38.044Z,100834.14
2022-12-28T03:58:06.320Z,100830.86
2022-12-28T04:00:35.075Z,100828.62
2022-12-28T04:03:03.932Z,100826.03
2022-12-28T04:05:31.755Z,100826.88
2022-12-28T04:07:59.410Z,100821.87
2022-12-28T04:10:27.414Z,100819.10
2022-12-28T04:12:56.721Z,100808.21
2022-12-28T04:15:33.117Z,100800.09
2022-12-28T04:18:01.405Z,100798.73
2022-12-28T04:20:29.327Z,100794.40
2022-12-28T04:22:58.074Z,100789.03
2022-12-28T04:25:26.464Z,100793.02
2022-12-28T04:27:54.520Z,100788.02
2022-12-28T04:30:44.650Z,100789.56
2022-12-28T04:33:12.709Z,100785.27
2022-12-28T04:35:41.262Z,100785.27
2022-12-28T04:38:09.591Z,100779.93
2022-12-28T04:40:37.258Z,100773.73
2022-12-28T04:43:04.871Z,100770.44
2022-12-28T04:45:32.938Z,100766.30
2022-12-28T04:48:00.768Z,100762.49
2022-12-28T04:50:28.523Z,100762.84
2022-12-28T04:52:56.674Z,100758.39
2022-12-28T04:55:33.047Z,100757.52
2022-12-28T04:58:01.297Z,100753.88
2022-12-28T05:00:29.139Z,100748.02
2022-12-28T05:03:00.325Z,100747.34
2022-12-28T05:05:29.624Z,100744.57
2022-12-28T05:08:00.545Z,100743.53
2022-12-28T05:10:28.534Z,100736.63
2022-12-28T05:12:56.603Z,100731.80
2022-12-28T05:15:24.204Z,100733.02
2022-12-28T05:17:51.829Z,100725.75
2022-12-28T05:20:20.633Z,100719.52
2022-12-28T05:22:48.277Z,100711.60
2022-12-28T05:25:16.019Z,100713.13
2022-12-28T05:27:44.291Z,100707.43
2022-12-28T05:30:12.207Z,100706.05
2022-12-28T05:32:40.142Z,100708.30
2022-12-28T05:35:08.412Z,100708.80
2022-12-28T05:37:36.691Z,100694.14
2022-12-28T05:40:04.571Z,100696.89
2022-12-28T05:42:32.574Z,100686.73
2022-12-28T05:45:00.234Z,100690.14
2022-12-28T05:47:27.922Z,100688.75
2022-12-28T05:49:56.407Z,100692.55
2022-12-28T05:52:24.025Z,100691.48
2022-12-28T05:54:51.793Z,100691.48
2022-12-28T05:57:19.961Z,100686.11
2022-12-28T05:59:47.545Z,100685.42
2022-12-28T06:02:18.066Z,100682.29
2022-12-28T06:04:49.656Z,100680.02
2022-12-28T06:07:17.268Z,100674.47
2022-12-28T06:09:44.938Z,100667.52
2022-12-28T06:12:12.733Z,100662.66
2022-12-28T06:14:40.474Z,100666.78
2022-12-28T06:17:08.082Z,100670.73
2022-12-28T06:19:36.135Z,100675.02
2022-12-28T06:22:04.143Z,100677.79
2022-12-28T06:24:31.800Z,100679.52
2022-12-28T06:26:59.778Z,100676.94
2022-12-28T06:29:27.561Z,100676.94
2022-12-28T06:31:56.574Z,100674.85
2022-12-28T06:34:27.198Z,100674.67
2022-12-28T06:36:57.684Z,100676.39
2022-12-28T06:39:25.329Z,100681.20
2022-12-28T06:41:53.266Z,100684.98
2022-12-28T06:44:20.945Z,100683.24
2022-12-28T06:46:48.584Z,100683.74
2022-12-28T06:49:16.544Z,100682.33
2022-12-28T06:51:44.302Z,100688.52
2022-12-28T06:54:11.968Z,100680.90
2022-12-28T06:56:39.996Z,100684.84
2022-12-28T06:59:07.754Z,100681.20
2022-12-28T07:01:39.633Z,100679.96
2022-12-28T07:04:08.489Z,100673.56
2022-12-28T07:06:45.134Z,100669.55
2022-12-28T07:09:15.000Z,100661.41
2022-12-28T07:11:43.084Z,100663.79
2022-12-28T07:14:11.386Z,100664.46
2022-12-28T07:19:05.968Z,100659.21
2022-12-28T07:21:34.886Z,100660.72
2022-12-28T07:24:04.624Z,100661.88
2022-12-28T07:26:34.251Z,100655.11
2022-12-28T07:29:02.878Z,100655.07
2022-12-28T07:31:31.888Z,100651.41
2022-12-28T07:34:00.573Z,100648.29
2022-12-28T07:36:33.419Z,100643.59
2022-12-28T07:39:01.517Z,100641.33
2022-12-28T07:41:30.234Z,100641.14
2022-12-28T07:43:59.694Z,100641.65
2022-12-28T07:46:29.222Z,100642.12
2022-12-28T07:48:57.245Z,100639.14
2022-12-28T07:51:28.049Z,100642.17
2022-12-28T07:53:56.647Z,100640.39
2022-12-28T07:56:25.147Z,100636.35
2022-12-28T07:58:54.550Z,100634.20
2022-12-28T08:01:24.532Z,100634.13
2022-12-28T08:03:53.630Z,100639.79
2022-12-28T08:06:23.428Z,100638.49
2022-12-28T08:08:52.726Z,100642.05
2022-12-28T08:11:24.966Z,100644.17
2022-12-28T08:13:54.503Z,100646.64
2022-12-28T08:16:23.350Z,100652.40
2022-12-28T08:18:51.091Z,100651.77
2022-12-28T08:21:21.182Z,100652.66
2022-12-28T08:23:49.595Z,100651.81
2022-12-28T08:26:20.933Z,100651.49
2022-12-28T08:28:50.033Z,100646.83
2022-12-28T08:31:19.324Z,100639.73
2022-12-28T08:33:48.199Z,100637.20
2022-12-28T08:36:16.161Z,100631.02
2022-12-28T08:38:45.200Z,100626.75
2022-12-28T08:41:16.895Z,100621.65
2022-12-28T08:43:45.599Z,100622.29
2022-12-28T08:46:15.186Z,100620.29
2022-12-28T08:48:46.009Z,100622.08
2022-12-28T08:51:15.273Z,100610.86
2022-12-28T08:53:45.626Z,100611.55
2022-12-28T08:56:17.757Z,100606.73
2022-12-28T08:58:46.004Z,100607.63
2022-12-28T09:01:20.698Z,100608.01
2022-12-28T09:03:50.156Z,100611.55
2022-12-28T09:06:19.422Z,100608.88
2022-12-28T09:09:04.837Z,100593.48
2022-12-28T09:11:37.498Z,100586.59
2022-12-28T09:14:06.414Z,100591.16
2022-12-28T09:16:35.964Z,100596.60
2022-12-28T09:19:04.378Z,100603.27
2022-12-28T09:21:33.733Z,100598.27
2022-12-28T09:24:02.154Z,100590.80
2022-12-28T09:26:33.692Z,100583.15
2022-12-28T09:29:02.142Z,100575.33
2022-12-28T09:31:31.485Z,100568.73
2022-12-28T09:36:50.752Z,100560.11
2022-12-28T09:39:20.735Z,100556.73
2022-12-28T09:41:48.639Z,100552.11
2022-12-28T09:44:35.711Z,100548.77
2022-12-28T09:47:12.596Z,100541.64
2022-12-28T09:49:40.436Z,100537.27
2022-12-28T09:52:17.162Z,100533.50
2022-12-28T09:54:45.143Z,100530.74
2022-12-28T09:57:15.096Z,100527.69
2022-12-28T09:59:44.361Z,100526.04
2022-12-28T10:02:24.098Z,100519.49
2022-12-28T10:04:52.316Z,100514.65
2022-12-28T10:07:20.149Z,100517.27
2022-12-28T10:09:48.037Z,100516.30
2022-12-28T10:12:17.676Z,100515.66
2022-12-28T10:14:47.741Z,100507.86
2022-12-28T10:17:17.658Z,100504.36
2022-12-28T10:19:46.720Z,100495.00
2022-12-28T10:22:18.666Z,100490.30
2022-12-28T10:24:47.737Z,100488.21
2022-12-28T10:27:23.235Z,100490.31
2022-12-28T10:29:52.040Z,100484.14
2022-12-28T10:32:20.232Z,100482.20
2022-12-28T10:34:56.828Z,100483.27
2022-12-28T10:37:25.979Z,100486.10
2022-12-28T10:39:57.207Z,100481.55
2022-12-28T10:42:32.420Z,100484.66
2022-12-28T10:45:06.827Z,100476.92
2022-12-28T10:47:37.195Z,100466.57
2022-12-28T10:52:58.315Z,100456.47
2022-12-28T10:55:33.201Z,100447.34
2022-12-28T10:58:29.203Z,100439.64
2022-12-28T11:01:07.200Z,100437.94
2022-12-28T11:03:38.957Z,100436.73
2022-12-28T11:06:28.093Z,100428.35
2022-12-28T11:09:16.603Z,100424.16
2022-12-28T11:11:46.192Z,100422.15
2022-12-28T11:14:23.475Z,100420.61
2022-12-28T11:16:51.413Z,100420.55
2022-12-28T11:19:19.298Z,100417.77
2022-12-28T11:21:47.616Z,100413.16
2022-12-28T11:24:16.677Z,100401.30
2022-12-28T11:26:50.243Z,100394.64
2022-12-28T11:29:19.389Z,100389.30
2022-12-28T11:32:08.377Z,100379.84
2022-12-28T11:34:37.385Z,100375.95
2022-12-28T11:37:05.190Z,100374.82
2022-12-28T11:39:41.836Z,100372.24
2022-12-28T11:42:37.910Z,100367.67
2022-12-28T11:44:59.939Z,100358.89
2022-12-28T11:47:33.155Z,100343.62
2022-12-28T11:50:20.653Z,100341.52
2022-12-28T11:52:50.052Z,100332.21
2022-12-28T11:55:39.905Z,100326.31
2022-12-28T11:58:26.547Z,100318.43
2022-12-28T12:00:54.710Z,100301.56
2022-12-28T12:03:41.420Z,100307.06
2022-12-28T12:06:09.433Z,100305.81
2022-12-28T12:08:41.325Z,100296.58
2022-12-28T12:11:19.191Z,100290.95
2022-12-28T12:13:52.888Z,100288.41
2022-12-28T12:16:24.593Z,100286.05
2022-12-28T12:18:55.500Z,100276.53
2022-12-28T12:21:35.214Z,100279.89
2022-12-28T12:24:26.877Z,100282.08
2022-12-28T12:27:01.394Z,100270.34
2022-12-28T12:29:36.563Z,100269.52
2022-12-28T12:32:06.955Z,100274.05
2022-12-28T12:34:50.879Z,100264.48
2022-12-28T12:37:29.072Z,100262.36
2022-12-28T12:40:09.383Z,100270.75
2022-12-28T12:42:56.241Z,100269.20
2022-12-28T12:45:40.284Z,100257.09
2022-12-28T12:48:21.588Z,100253.15
2022-12-28T12:51:05.924Z,100249.38
2022-12-28T12:53:49.122Z,100251.36
2022-12-28T12:56:17.052Z,100245.48
2022-12-28T12:59:12.459Z,100237.84
2022-12-28T13:02:01.362Z,100241.77
2022-12-28T13:04:31.829Z,100238.30
2022-12-28T13:07:01.502Z,100230.39
2022-12-28T13:09:33.250Z,100231.94
2022-12-28T13:12:02.128Z,100231.42
2022-12-28T13:14:32.498Z,100233.76
2022-12-28T13:17:03.824Z,100230.86
2022-12-28T13:19:31.613Z,100229.70
2022-12-28T13:21:59.444Z,100227.29
2022-12-28T13:24:30.543Z,100224.64
2022-12-28T13:26:59.816Z,100218.94
2022-12-28T13:29:31.652Z,100213.70
2022-12-28T13:31:59.520Z,100215.83
2022-12-28T13:34:30.272Z,100207.83
2022-12-28T13:36:59.658Z,100211.02
2022-12-28T13:39:34.222Z,100210.73
2022-12-28T13:42:18.757Z,100200.20
2022-12-28T13:44:52.030Z,100201.77
2022-12-28T13:47:26.149Z,100195.29
2022-12-28T13:49:54.027Z,100198.90
2022-12-28T13:52:31.206Z,100192.43
2022-12-28T13:55:03.452Z,100190.09
2022-12-28T13:57:46.279Z,100188.95
2022-12-28T14:00:22.628Z,100189.05
2022-12-28T14:02:53.238Z,100200.45
2022-12-28T14:05:25.968Z,100196.11
2022-12-28T14:07:55.189Z,100202.54
2022-12-28T14:10:23.439Z,100202.52
2022-12-28T14:12:51.868Z,100197.23
2022-12-28T14:15:20.005Z,100203.44
2022-12-28T14:17:51.658Z,100197.27
2022-12-28T14:20:19.661Z,100192.67
2022-12-28T14:22:49.635Z,100196.98
2022-12-28T14:25:18.977Z,100190.48
2022-12-28T14:27:57.037Z,100183.65
2022-12-28T14:30:28.300Z,100185.23
2022-12-28T14:32:56.551Z,100182.34
2022-12-28T14:35:26.287Z,100181.02
2022-12-28T14:37:55.334Z,100182.38
2022-12-28T14:40:26.222Z,100180.37
2022-12-28T14:42:54.842Z,100182.57
2022-12-28T14:45:30.913Z,100185.67
2022-12-28T14:47:58.992Z,100174.29
2022-12-28T14:50:28.968Z,100170.23
2022-12-28T14:53:15.818Z,100168.21
2022-12-28T14:55:53.567Z,100165.70
2022-12-28T14:58:23.269Z,100159.75
2022-12-28T15:00:59.499Z,100156.90
2022-12-28T15:03:29.338Z,100151.15
2022-12-28T15:05:58.532Z,100143.85
2022-12-28T15:08:29.680Z,100147.02
2022-12-28T15:10:58.972Z,100159.92
2022-12-28T15:13:27.410Z,100160.63
2022-12-28T15:15:55.123Z,100168.95
2022-12-28T15:18:23.140Z,100169.87
2022-12-28T15:20:51.448Z,100174.30
2022-12-28T15:23:19.123Z,100169.08
2022-12-28T15:25:47.661Z,100165.57
2022-12-28T15:28:16.300Z,100164.16
2022-12-28T15:30:43.990Z,100164.34
2022-12-28T15:33:12.296Z,100161.15
2022-12-28T15:35:40.299Z,100157.63
2022-12-28T15:38:08.032Z,100156.91
2022-12-28T15:40:38.715Z,100161.55
2022-12-28T15:43:06.405Z,100160.81
2022-12-28T15:45:34.729Z,100159.92
2022-12-28T15:48:02.801Z,100161.98
2022-12-28T15:50:32.242Z,100157.29
2022-12-28T15:53:00.991Z,100160.01
2022-12-28T15:55:28.907Z,100157.17
2022-12-28T15:57:56.795Z,100161.55
2022-12-28T16:00:24.638Z,100159.23
2022-12-28T16:02:52.443Z,100157.45
2022-12-28T16:05:20.532Z,100162.10
2022-12-28T16:07:48.417Z,100165.23
2022-12-28T16:10:16.243Z,100166.96
2022-12-28T16:12:44.067Z,100171.61
2022-12-28T16:15:11.945Z,100169.88
2022-12-28T16:17:49.973Z,100173.48
2022-12-28T16:20:19.645Z,100174.80
2022-12-28T16:22:47.407Z,100174.58
2022-12-28T16:25:22.200Z,100171.75
2022-12-28T16:27:50.756Z,100175.65
2022-12-28T16:30:18.523Z,100175.10
2022-12-28T16:32:46.871Z,100174.67
2022-12-28T16:35:15.446Z,100174.48
2022-12-28T16:37:43.261Z,100177.21
2022-12-28T16:40:10.976Z,100176.84
2022-12-28T16:42:39.365Z,100173.67
2022-12-28T16:45:08.842Z,100172.04
2022-12-28T16:47:44.295Z,100169.41
2022-12-28T16:50:12.664Z,100167.77
2022-12-28T16:52:41.007Z,100162.30
2022-12-28T16:55:09.634Z,100164.27
2022-12-28T16:57:37.425Z,100159.83
2022-12-28T17:00:05.388Z,100152.95
2022-12-28T17:02:33.233Z,100150.79
2022-12-28T17:05:01.630Z,100151.29
2022-12-28T17:07:29.280Z,100151.09
2022-12-28T17:09:56.900Z,100150.36
2022-12-28T17:12:27.168Z,100148.42
2022-12-28T17:14:54.785Z,100145.58
2022-12-28T17:17:22.735Z,100147.83
2022-12-28T17:19:51.221Z,100151.40
2022-12-28T17:22:18.972Z,100148.20
2022-12-28T17:24:47.043Z,100147.61
2022-12-28T17:27:19.045Z,100146.27
2022-12-28T17:29:47.294Z,100147.25
2022-12-28T17:32:15.600Z,100144.89
2022-12-28T17:34:44.897Z,100136.98
2022-12-28T17:37:12.548Z,100139.35
2022-12-28T17:39:40.903Z,100137.90
2022-12-28T17:42:09.108Z,100139.93
2022-12-28T17:44:36.829Z,100137.79
2022-12-28T17:47:04.748Z,100145.55
2022-12-28T17:49:32.570Z,100144.61
2022-12-28T17:52:00.433Z,100145.79
2022-12-28T17:54:28.207Z,100146.11
2022-12-28T17:56:56.480Z,100146.20
2022-12-28T17:59:24.069Z,100144.39
2022-12-28T18:01:52.106Z,100143.50
2022-12-28T18:04:19.990Z,100145.64
2022-12-28T18:06:47.732Z,100140.90
2022-12-28T18:09:17.461Z,100140.50
2022-12-28T18:11:47.725Z,100138.02
2022-12-28T18:14:15.388Z,100135.06
2022-12-28T18:16:43.095Z,100135.41
2022-12-28T18:19:11.594Z,100138.38
2022-12-28T18:21:41.229Z,100135.05
2022-12-28T18:24:11.827Z,100134.48
2022-12-28T18:26:41.936Z,100134.80
2022-12-28T18:29:09.744Z,100140.70
2022-12-28T18:31:37.436Z,100134.95
2022-12-28T18:34:05.364Z,100133.38
2022-12-28T18:36:32.998Z,100132.80
2022-12-28T18:39:01.684Z,100122.98
2022-12-28T18:41:33.904Z,100121.00
2022-12-28T18:44:03.272Z,100115.52
2022-12-28T18:46:31.387Z,100117.87
2022-12-28T18:49:00.538Z,100116.80
2022-12-28T18:51:28.443Z,100116.54
2022-12-28T18:53:56.356Z,100117.37
2022-12-28T18:56:23.969Z,100116.40
2022-12-28T18:58:52.838Z,100118.05
2022-12-28T19:04:11.033Z,100110.29
2022-12-28T19:06:39.202Z,100112.65
2022-12-28T19:09:07.643Z,100113.09
2022-12-28T19:11:36.130Z,100109.03
2022-12-28T19:14:07.961Z,100108.99
2022-12-28T19:16:35.596Z,100106.36
2022-12-28T19:19:04.258Z,100097.29
2022-12-28T19:21:35.942Z,100097.45
2022-12-28T19:24:06.690Z,100092.92
2022-12-28T19:26:35.297Z,100092.58
2022-12-28T19:29:03.552Z,100093.15
2022-12-28T19:31:31.970Z,100093.13
2022-12-28T19:33:59.997Z,100097.48
2022-12-28T19:36:27.669Z,100098.02
2022-12-28T19:38:56.108Z,100097.20
2022-12-28T19:41:24.235Z,100099.52
2022-12-28T19:43:52.089Z,100101.10
2022-12-28T19:46:21.077Z,100099.42
2022-12-28T19:48:52.315Z,100098.08
2022-12-28T19:51:19.926Z,100098.15
2022-12-28T19:53:47.923Z,100091.56
2022-12-28T19:56:17.047Z,100089.67
2022-12-28T19:58:45.609Z,100089.90
2022-12-28T20:01:13.720Z,100085.73
2022-12-28T20:03:42.772Z,100086.29
2022-12-28T20:06:12.068Z,100084.78
2022-12-28T20:08:39.981Z,100081.64
2022-12-28T20:11:08.028Z,100078.70
2022-12-28T20:13:35.681Z,100077.69
2022-12-28T20:16:03.502Z,100072.46
2022-12-28T20:18:31.787Z,100065.20
2022-12-28T20:21:20.509Z,100064.19
2022-12-28T20:23:49.789Z,100060.66
2022-12-28T20:26:18.223Z,100069.86
2022-12-28T20:28:45.895Z,100070.23
2022-12-28T20:31:14.845Z,100071.64
2022-12-28T20:33:43.064Z,100073.89
2022-12-28T20:36:11.896Z,100073.02
2022-12-28T20:38:40.042Z,100067.80
2022-12-28T20:41:10.813Z,100068.27
2022-12-28T20:43:38.433Z,100065.29
2022-12-28T20:46:10.142Z,100069.27
2022-12-28T20:48:37.985Z,100058.91
2022-12-28T20:51:05.705Z,100067.77
2022-12-28T20:53:33.572Z,100066.68
2022-12-28T20:56:08.563Z,100065.95
2022-12-28T20:58:37.174Z,100060.35
2022-12-28T21:01:05.810Z,100059.58
2022-12-28T21:03:33.937Z,100053.25
2022-12-28T21:06:02.171Z,100056.81
2022-12-28T21:08:31.099Z,100060.56
2022-12-28T21:10:59.257Z,100054.42
2022-12-28T21:13:27.735Z,100051.28
2022-12-28T21:15:55.465Z,100054.52
2022-12-28T21:18:23.270Z,100049.27
2022-12-28T21:20:52.579Z,100050.80
2022-12-28T21:23:20.362Z,100051.96
2022-12-28T21:25:48.061Z,100052.16
2022-12-28T21:28:15.873Z,100050.67
2022-12-28T21:30:43.768Z,100054.06
2022-12-28T21:33:11.725Z,100052.57
2022-12-28T21:35:40.215Z,100045.33
2022-12-28T21:38:07.970Z,100043.14
2022-12-28T21:40:35.976Z,100036.80
2022-12-28T21:43:03.950Z,100037.36
2022-12-28T21:45:31.659Z,100036.36
2022-12-28T21:47:59.541Z,100035.21
2022-12-28T21:50:27.619Z,100037.02
2022-12-28T21:52:55.284Z,100029.04
2022-12-28T21:55:41.662Z,100023.90
2022-12-28T21:58:10.116Z,100023.62
2022-12-28T22:00:58.959Z,100015.66
2022-12-28T22:03:46.296Z,100011.35
2022-12-28T22:06:14.649Z,100003.58
2022-12-28T22:09:01.482Z,99994.01
2022-12-28T22:11:48.559Z,100005.90
2022-12-28T22:14:16.453Z,100011.84
2022-12-28T22:16:44.592Z,100010.61
2022-12-28T22:19:12.613Z,100009.23
2022-12-28T22:21:40.850Z,100009.76
2022-12-28T22:24:08.649Z,100009.52
2022-12-28T22:26:36.319Z,100009.87
2022-12-28T22:29:04.261Z,100007.06
2022-12-28T22:31:32.135Z,100007.23
2022-12-28T22:34:06.593Z,100003.38
2022-12-28T22:36:35.140Z,100003.36
2022-12-28T22:39:05.184Z,100000.20
2022-12-28T22:41:32.846Z,99995.64
2022-12-28T22:44:00.712Z,99985.72
2022-12-28T22:46:28.456Z,99972.31
2022-12-28T22:48:56.097Z,99974.90
2022-12-28T22:51:24.226Z,99973.59
2022-12-28T22:53:51.852Z,99976.14
2022-12-28T22:56:22.461Z,99980.36
2022-12-28T22:58:50.747Z,99979.20
2022-12-28T23:01:19.499Z,99982.27
2022-12-28T23:03:47.880Z,99984.13
2022-12-28T23:06:18.306Z,99980.58
2022-12-28T23:08:46.394Z,99979.52
2022-12-28T23:11:33.711Z,99973.91
2022-12-28T23:14:22.410Z,99972.52
2022-12-28T23:16:50.304Z,99973.09
2022-12-28T23:19:40.160Z,99966.71
2022-12-28T23:22:26.667Z,99963.36
2022-12-28T23:25:13.673Z,99934.29
2022-12-28T23:27:43.260Z,99952.32
2022-12-28T23:30:12.670Z,99945.98
2022-12-28T23:32:40.367Z,99938.91
2022-12-28T23:35:10.186Z,99936.37
2022-12-28T23:37:39.408Z,99931.58
2022-12-28T23:40:08.537Z,99929.86
2022-12-28T23:42:36.789Z,99929.70
2022-12-28T23:45:08.866Z,99928.00
2022-12-28T23:47:37.076Z,99923.60
2022-12-28T23:50:05.312Z,99920.90
2022-12-28T23:52:33.795Z,99915.23
2022-12-28T23:55:01.648Z,99909.89
2022-12-28T23:57:29.365Z,99907.69
2022-12-28T23:59:59.621Z,99912.61
